Time;durP1;ratioP1;P1;durP2;ratioP2;P2;SDS_P1;SDS_P2;PMS_P1;PMS_P2;Temp;Humidity;BMP_temperature;BMP_pressure;BME280_temperature;BME280_humidity;BME280_pressure;Samples;Min_cycle;Max_cycle;Signal;HPM_P1;HPM_P2
2021/06/17 00:02:11;;;;;;;0.00;0.00;;;;;;;26.02;33.46;97353.91;5094003;28;20036;-64
2021/06/17 00:04:37;;;;;;;0.10;0.10;;;;;;;26.60;32.79;97352.06;5092250;28;20024;-63
2021/06/17 00:07:03;;;;;;;0.10;0.10;;;;;;;26.86;32.90;97352.13;5093589;28;20035;-63
2021/06/17 00:09:28;;;;;;;0.10;0.10;;;;;;;26.12;34.07;97349.63;5093582;28;20028;-63
2021/06/17 00:12:01;;;;;;;0.20;0.20;;;;;;;26.14;34.21;97350.91;5092928;28;20040;-63
2021/06/17 00:14:32;;;;;;;0.05;0.05;;;;;;;27.18;33.27;97342.50;5092088;28;20063;-63
2021/06/17 00:16:59;;;;;;;0.10;0.10;;;;;;;28.26;31.78;97332.56;5093794;28;20032;-63
2021/06/17 00:19:27;;;;;;;0.10;0.10;;;;;;;29.21;30.61;97320.75;5093740;28;20028;-65
2021/06/17 00:21:54;;;;;;;0.85;0.20;;;;;;;29.64;30.29;97318.97;5093611;28;20032;-62
2021/06/17 00:24:20;;;;;;;0.30;0.30;;;;;;;29.79;30.35;97313.38;5093413;28;20024;-61
2021/06/17 00:26:47;;;;;;;0.10;0.10;;;;;;;30.62;29.50;97307.84;5093662;28;20032;-63
2021/06/17 00:29:13;;;;;;;0.00;0.00;;;;;;;31.57;28.50;97312.97;5093168;28;20514;-64
2021/06/17 00:31:39;;;;;;;0.10;0.10;;;;;;;32.49;27.83;97313.63;5093425;28;20034;-62
2021/06/17 00:34:09;;;;;;;0.08;0.08;;;;;;;33.19;27.06;97306.09;5093382;28;20403;-61
2021/06/17 00:36:37;;;;;;;0.00;0.00;;;;;;;33.46;27.25;97294.81;5092974;28;20039;-62
2021/06/17 00:39:04;;;;;;;0.98;0.30;;;;;;;33.78;26.94;97278.59;5093020;28;20119;-62
2021/06/17 00:41:30;;;;;;;0.05;0.05;;;;;;;34.61;26.33;97268.78;5093030;28;20508;-63
2021/06/17 00:43:55;;;;;;;2.10;0.10;;;;;;;35.51;25.55;97273.59;5092953;28;20027;-63
2021/06/17 00:46:21;;;;;;;0.10;0.10;;;;;;;36.29;25.06;97280.88;5091454;28;20129;-64
2021/06/17 00:48:47;;;;;;;0.28;0.28;;;;;;;36.97;24.38;97284.91;5092942;28;20491;-62
2021/06/17 00:51:13;;;;;;;0.10;0.10;;;;;;;37.58;23.82;97296.72;5092823;28;20055;-63
2021/06/17 00:53:39;;;;;;;0.00;0.00;;;;;;;38.24;23.88;97309.91;5093004;28;20555;-64
2021/06/17 00:56:05;;;;;;;0.00;0.00;;;;;;;38.72;23.32;97336.63;5093206;28;20038;-62
2021/06/17 00:58:30;;;;;;;0.10;0.10;;;;;;;38.70;23.83;97330.56;5092893;28;20067;-61
2021/06/17 01:00:56;;;;;;;0.00;0.00;;;;;;;38.58;23.71;97329.28;5092799;28;20528;-63
2021/06/17 01:03:22;;;;;;;0.10;0.10;;;;;;;38.54;24.35;97331.47;5092723;28;20032;-62
2021/06/17 01:05:49;;;;;;;0.00;0.00;;;;;;;38.82;24.33;97344.06;5092487;28;20028;-64
2021/06/17 01:08:32;;;;;;;0.10;0.10;;;;;;;39.05;23.85;97339.22;5092783;28;20032;-63
2021/06/17 01:11:10;;;;;;;2.30;0.88;;;;;;;39.08;23.91;97333.34;5092601;28;20034;-65
2021/06/17 01:13:59;;;;;;;0.00;0.00;;;;;;;37.40;26.07;97328.72;5089171;28;20135;-62
2021/06/17 01:16:33;;;;;;;0.25;0.10;;;;;;;34.76;29.17;97332.84;5092471;28;20420;-62
2021/06/17 01:19:03;;;;;;;0.30;0.10;;;;;;;32.98;31.46;97327.00;5092440;28;20040;-62
2021/06/17 01:21:44;;;;;;;0.05;0.05;;;;;;;34.02;29.56;97314.41;5091654;28;20463;-62
2021/06/17 01:24:31;;;;;;;0.10;0.10;;;;;;;35.57;27.12;97313.84;5092525;28;20036;-62
2021/06/17 01:27:00;;;;;;;1.20;0.57;;;;;;;36.62;25.80;97313.16;5095460;28;20443;-62
2021/06/17 01:29:29;;;;;;;0.43;0.20;;;;;;;37.78;24.65;97318.66;5096372;28;20398;-60
2021/06/17 01:31:56;;;;;;;0.20;0.20;;;;;;;37.06;25.87;97303.47;5096571;28;20101;-61
2021/06/17 01:34:24;;;;;;;0.00;0.00;;;;;;;34.83;28.46;97309.94;5095210;28;20046;-62
2021/06/17 01:36:59;;;;;;;0.00;0.00;;;;;;;32.56;31.21;97304.22;5096620;28;20055;-62
2021/06/17 01:39:26;;;;;;;0.10;0.10;;;;;;;30.89;33.49;97306.22;5095023;28;20071;-63
2021/06/17 01:41:53;;;;;;;0.00;0.00;;;;;;;29.64;34.79;97307.66;5096350;28;20035;-62
2021/06/17 01:44:22;;;;;;;0.10;0.10;;;;;;;28.69;35.88;97303.91;5095879;28;20032;-62
2021/06/17 01:46:50;;;;;;;0.25;0.25;;;;;;;28.10;36.65;97293.31;5096263;28;20024;-64
2021/06/17 01:49:17;;;;;;;0.00;0.00;;;;;;;27.60;36.77;97280.25;5096539;28;20032;-61
2021/06/17 01:51:45;;;;;;;0.10;0.10;;;;;;;27.18;36.85;97283.34;5096556;28;20058;-62
2021/06/17 01:54:21;;;;;;;0.10;0.10;;;;;;;26.76;37.04;97285.19;5096260;28;20039;-60
2021/06/17 01:56:52;;;;;;;0.30;0.30;;;;;;;26.35;37.40;97279.31;5096273;28;20040;-62
2021/06/17 01:59:19;;;;;;;0.10;0.10;;;;;;;26.03;37.90;97274.78;5096620;28;20105;-61
2021/06/17 02:01:47;;;;;;;0.00;0.00;;;;;;;25.63;38.20;97275.19;5096279;28;20036;-62
2021/06/17 02:04:17;;;;;;;0.10;0.10;;;;;;;25.22;38.63;97281.19;5096256;28;20035;-59
2021/06/17 02:06:44;;;;;;;0.22;0.20;;;;;;;24.80;39.00;97282.69;5096089;28;20042;-62
2021/06/17 02:09:10;;;;;;;0.10;0.10;;;;;;;24.41;39.41;97276.97;5096479;28;20032;-63
2021/06/17 02:11:37;;;;;;;0.10;0.10;;;;;;;24.07;39.84;97270.94;5096316;28;20089;-61
2021/06/17 02:14:04;;;;;;;0.10;0.10;;;;;;;23.73;40.43;97262.03;5095996;28;20485;-62
2021/06/17 02:16:32;;;;;;;0.10;0.10;;;;;;;23.49;40.43;97245.34;5096299;28;20520;-63
2021/06/17 02:18:59;;;;;;;0.10;0.10;;;;;;;23.21;41.07;97249.00;5094218;28;20397;-62
2021/06/17 02:21:28;;;;;;;0.10;0.10;;;;;;;22.97;41.22;97242.28;5095009;28;20024;-63
2021/06/17 02:23:58;;;;;;;0.10;0.10;;;;;;;22.75;41.81;97244.44;5095523;28;20032;-63
2021/06/17 02:26:25;;;;;;;0.10;0.10;;;;;;;22.63;41.41;97241.69;5095573;28;20116;-63
2021/06/17 02:28:53;;;;;;;0.13;0.13;;;;;;;22.53;41.66;97259.75;5093867;28;20414;-62
2021/06/17 02:31:30;;;;;;;0.10;0.10;;;;;;;22.50;41.63;97260.47;5095494;28;20093;-61
2021/06/17 02:33:56;;;;;;;0.25;0.25;;;;;;;22.43;41.85;97265.81;5095862;28;20036;-61
2021/06/17 02:36:22;;;;;;;0.10;0.10;;;;;;;22.46;41.67;97270.72;5094968;28;20036;-62
2021/06/17 02:38:51;;;;;;;0.10;0.10;;;;;;;22.49;41.49;97269.19;5094926;28;20063;-62
2021/06/17 02:41:19;;;;;;;0.10;0.10;;;;;;;22.61;41.42;97271.97;5095063;28;20044;-61
2021/06/17 02:43:47;;;;;;;0.10;0.10;;;;;;;22.82;40.85;97279.41;5093900;28;20028;-61
2021/06/17 02:46:15;;;;;;;0.10;0.10;;;;;;;23.10;40.27;97285.09;5095046;28;20137;-63
2021/06/17 02:48:41;;;;;;;0.05;0.05;;;;;;;23.26;40.20;97293.53;5095310;28;20035;-62
2021/06/17 02:51:07;;;;;;;0.30;0.30;;;;;;;23.32;39.85;97300.53;5095207;28;20032;-61
2021/06/17 02:53:33;;;;;;;0.30;0.30;;;;;;;23.31;39.96;97298.06;5095122;28;20032;-62
2021/06/17 02:56:01;;;;;;;0.10;0.10;;;;;;;23.24;40.40;97299.47;5095179;28;20036;-61
2021/06/17 02:59:04;;;;;;;0.10;0.10;;;;;;;23.13;40.84;97303.13;5095294;28;20085;-61
2021/06/17 03:01:40;;;;;;;2.20;0.68;;;;;;;23.03;41.11;97305.25;5095032;28;20035;-63
2021/06/17 03:04:22;;;;;;;1.35;0.20;;;;;;;22.95;41.13;97314.56;5095163;28;20104;-61
2021/06/17 03:06:52;;;;;;;0.25;0.25;;;;;;;22.92;41.27;97318.09;5094928;28;20455;-62
2021/06/17 03:09:45;;;;;;;1.75;0.28;;;;;;;22.89;41.53;97322.44;5095440;28;20457;-61
2021/06/17 03:12:16;;;;;;;0.10;0.10;;;;;;;22.81;41.55;97316.97;5094544;28;20028;-61
2021/06/17 03:14:45;;;;;;;0.10;0.10;;;;;;;22.76;41.92;97318.00;5094992;28;20043;-63
2021/06/17 03:17:12;;;;;;;0.13;0.10;;;;;;;22.76;41.88;97323.59;5095098;28;20024;-62
2021/06/17 03:19:40;;;;;;;0.43;0.35;;;;;;;22.73;41.94;97329.88;5094960;28;20028;-62
2021/06/17 03:22:12;;;;;;;0.10;0.10;;;;;;;22.66;41.97;97340.84;5093437;28;20067;-61
2021/06/17 03:24:41;;;;;;;0.30;0.30;;;;;;;22.55;42.30;97334.91;5094607;28;20032;-61
2021/06/17 03:27:08;;;;;;;0.57;0.43;;;;;;;22.47;42.52;97338.66;5094424;28;20497;-60
2021/06/17 03:29:44;;;;;;;0.10;0.10;;;;;;;22.37;42.74;97340.75;5094807;28;20056;-61
2021/06/17 03:32:12;;;;;;;0.13;0.13;;;;;;;22.30;42.75;97332.09;5094317;28;20054;-61
2021/06/17 03:34:41;;;;;;;0.17;0.17;;;;;;;22.20;42.92;97333.38;5094493;28;20504;-60
2021/06/17 03:37:10;;;;;;;0.10;0.10;;;;;;;22.14;43.03;97336.72;5094337;28;20093;-62
2021/06/17 03:39:38;;;;;;;6.22;0.65;;;;;;;22.05;43.29;97332.06;5094004;28;20109;-63
2021/06/17 03:42:06;;;;;;;0.20;0.20;;;;;;;21.95;43.60;97331.69;5094104;28;20108;-60
2021/06/17 03:44:34;;;;;;;0.30;0.30;;;;;;;21.77;43.65;97334.66;5094054;28;20101;-63
2021/06/17 03:47:01;;;;;;;0.10;0.10;;;;;;;21.65;43.97;97329.06;5093370;28;20028;-64
2021/06/17 03:49:28;;;;;;;0.10;0.10;;;;;;;21.59;44.00;97325.66;5094180;28;20503;-61
2021/06/17 03:51:58;;;;;;;0.10;0.10;;;;;;;21.60;44.04;97330.09;5094051;28;20051;-63
2021/06/17 03:54:27;;;;;;;0.40;0.40;;;;;;;21.62;43.94;97333.34;5093752;28;20379;-61
2021/06/17 03:57:00;;;;;;;0.10;0.10;;;;;;;21.60;44.04;97335.69;5093771;28;20085;-61
2021/06/17 03:59:36;;;;;;;0.40;0.40;;;;;;;21.60;43.98;97337.63;5092448;28;20066;-61
2021/06/17 04:02:03;;;;;;;0.13;0.13;;;;;;;21.63;44.09;97335.00;5093773;28;20276;-61
2021/06/17 04:04:30;;;;;;;0.10;0.10;;;;;;;21.68;43.81;97336.75;5092250;28;20092;-60
2021/06/17 04:06:58;;;;;;;0.10;0.10;;;;;;;21.66;43.94;97339.88;5091809;28;20035;-60
2021/06/17 04:09:30;;;;;;;0.10;0.10;;;;;;;21.63;44.08;97342.56;5093898;28;20039;-60
2021/06/17 04:12:18;;;;;;;0.10;0.10;;;;;;;21.57;44.32;97339.16;5093741;28;20032;-60
2021/06/17 04:14:48;;;;;;;0.10;0.10;;;;;;;21.47;44.53;97348.75;5093492;28;20036;-60
2021/06/17 04:17:19;;;;;;;0.10;0.10;;;;;;;21.37;44.82;97338.00;5093290;28;20040;-60
2021/06/17 04:19:46;;;;;;;0.10;0.10;;;;;;;21.37;44.92;97337.19;5093213;28;20063;-60
2021/06/17 04:22:14;;;;;;;0.03;0.03;;;;;;;21.39;45.04;97338.44;5093393;28;20040;-60
2021/06/17 04:24:46;;;;;;;0.10;0.10;;;;;;;21.42;44.98;97336.97;5093306;28;20028;-60
2021/06/17 04:27:13;;;;;;;0.10;0.10;;;;;;;21.40;45.00;97340.09;5092427;28;20035;-59
2021/06/17 04:29:39;;;;;;;0.10;0.10;;;;;;;21.32;45.23;97336.22;5092715;28;20048;-60
2021/06/17 04:32:08;;;;;;;0.10;0.10;;;;;;;21.24;45.63;97328.75;5092946;28;20032;-59
2021/06/17 04:34:35;;;;;;;0.10;0.10;;;;;;;21.18;45.98;97330.91;5091751;28;20126;-60
2021/06/17 04:37:07;;;;;;;0.10;0.10;;;;;;;21.18;45.80;97328.13;5093048;28;20066;-60
2021/06/17 04:39:33;;;;;;;0.22;0.22;;;;;;;21.23;46.04;97329.91;5091858;28;20024;-60
2021/06/17 04:41:59;;;;;;;0.20;0.20;;;;;;;21.25;45.88;97327.59;5093172;28;20584;-60
2021/06/17 04:44:26;;;;;;;0.20;0.15;;;;;;;21.32;45.99;97335.44;5093307;28;20157;-61
2021/06/17 04:46:54;;;;;;;0.35;0.35;;;;;;;21.39;45.76;97321.69;5093236;28;20032;-61
2021/06/17 04:49:21;;;;;;;0.20;0.20;;;;;;;21.47;45.95;97325.59;5092972;28;20032;-60
2021/06/17 04:51:48;;;;;;;0.10;0.10;;;;;;;21.57;45.84;97336.38;5092757;28;20373;-62
2021/06/17 04:54:19;;;;;;;0.10;0.10;;;;;;;21.72;45.67;97334.09;5093077;28;20028;-59
2021/06/17 04:56:46;;;;;;;0.38;0.20;;;;;;;21.92;45.28;97335.97;5091410;28;20040;-60
2021/06/17 04:59:15;;;;;;;0.10;0.10;;;;;;;22.13;45.03;97321.13;5092992;28;20089;-62
2021/06/17 05:01:42;;;;;;;0.50;0.50;;;;;;;22.39;44.67;97341.22;5093188;28;20028;-61
2021/06/17 05:04:09;;;;;;;0.40;0.40;;;;;;;22.64;44.32;97335.59;5092777;28;20493;-62
2021/06/17 05:06:37;;;;;;;0.45;0.20;;;;;;;23.04;43.68;97337.66;5090258;28;20036;-62
2021/06/17 05:11:51;;;;;;;0.22;0.22;;;;;;;24.44;41.40;97349.19;5092973;28;20097;-49
2021/06/17 05:14:17;;;;;;;0.25;0.25;;;;;;;24.80;41.45;97355.69;5092035;28;20028;-57
2021/06/17 05:16:43;;;;;;;0.17;0.17;;;;;;;27.32;37.19;97339.88;5092110;28;20032;-59
2021/06/17 05:19:09;;;;;;;0.10;0.10;;;;;;;29.99;33.47;97339.31;5092520;28;20454;-61
2021/06/17 05:21:35;;;;;;;0.10;0.10;;;;;;;32.05;31.33;97339.84;5092449;28;20040;-52
2021/06/17 05:24:01;;;;;;;0.43;0.30;;;;;;;33.95;29.81;97339.34;5092405;28;20031;-59
2021/06/17 05:26:28;;;;;;;0.10;0.10;;;;;;;34.79;29.31;97325.50;5092580;28;20027;-56
2021/06/17 05:28:55;;;;;;;0.10;0.10;;;;;;;34.16;31.06;97336.19;5092414;28;20052;-56
2021/06/17 05:31:23;;;;;;;0.30;0.30;;;;;;;33.48;32.19;97337.06;5090617;28;20032;-56
2021/06/17 05:33:49;;;;;;;0.40;0.40;;;;;;;32.35;33.93;97347.81;5091591;28;20486;-56
2021/06/17 05:36:15;;;;;;;0.68;0.68;;;;;;;31.12;36.00;97346.69;5092660;28;20071;-59
2021/06/17 05:38:41;;;;;;;1.38;0.52;;;;;;;29.86;37.90;97353.03;5091963;28;20115;-55
2021/06/17 05:41:07;;;;;;;0.10;0.10;;;;;;;28.82;39.66;97358.88;5092506;28;20555;-60
2021/06/17 05:43:33;;;;;;;0.20;0.20;;;;;;;28.18;40.55;97362.72;5091768;28;20032;-56
2021/06/17 05:46:00;;;;;;;0.20;0.20;;;;;;;27.59;41.03;97357.59;5074045;28;20028;-57
2021/06/17 05:48:28;;;;;;;0.10;0.10;;;;;;;27.16;41.39;97359.78;5092007;28;20031;-56
2021/06/17 05:50:54;;;;;;;0.20;0.20;;;;;;;26.87;41.70;97365.03;5092188;28;20039;-61
2021/06/17 05:53:20;;;;;;;0.45;0.45;;;;;;;26.97;41.55;97349.47;5092103;28;20035;-63
2021/06/17 05:55:46;;;;;;;0.10;0.10;;;;;;;27.38;40.50;97351.69;5090777;28;20042;-60
2021/06/17 05:58:13;;;;;;;0.10;0.10;;;;;;;27.69;39.52;97346.81;5090666;28;20032;-61
2021/06/17 06:00:39;;;;;;;0.20;0.20;;;;;;;27.47;39.98;97355.00;5091877;28;20043;-59
2021/06/17 06:03:05;;;;;;;0.10;0.10;;;;;;;27.08;40.59;97353.25;5091963;28;20493;-59
2021/06/17 06:05:30;;;;;;;0.20;0.20;;;;;;;26.78;40.71;97356.03;5092231;28;20032;-59
2021/06/17 06:08:00;;;;;;;0.80;0.20;;;;;;;26.47;41.32;97346.66;5091973;28;20028;-59
2021/06/17 06:10:26;;;;;;;0.35;0.35;;;;;;;26.12;41.70;97356.09;5092026;28;20028;-59
2021/06/17 06:12:53;;;;;;;0.10;0.10;;;;;;;25.93;41.99;97356.06;5095721;28;20031;-60
2021/06/17 06:15:19;;;;;;;0.32;0.32;;;;;;;26.12;41.20;97367.34;5095761;28;20115;-63
2021/06/17 06:17:44;;;;;;;0.00;0.00;;;;;;;26.34;40.94;97362.91;5095039;28;20446;-63
2021/06/17 06:20:12;;;;;;;0.05;0.05;;;;;;;26.35;40.80;97353.28;5093905;28;20028;-63
2021/06/17 06:22:37;;;;;;;0.15;0.15;;;;;;;26.69;40.27;97355.47;5095656;28;20032;-60
2021/06/17 06:25:05;;;;;;;1.38;0.20;;;;;;;26.80;39.91;97364.09;5095223;28;20043;-63
2021/06/17 06:27:31;;;;;;;0.22;0.22;;;;;;;26.77;39.90;97356.38;5095744;28;20028;-64
2021/06/17 06:30:00;;;;;;;0.50;0.50;;;;;;;26.65;40.15;97360.19;5095042;28;20548;-62
2021/06/17 06:32:26;;;;;;;0.00;0.00;;;;;;;26.44;40.48;97361.47;5095241;28;20097;-63
2021/06/17 06:34:52;;;;;;;0.20;0.20;;;;;;;26.14;41.06;97366.97;5095522;28;20043;-62
2021/06/17 06:37:18;;;;;;;0.20;0.20;;;;;;;25.96;41.35;97369.41;5095053;28;20028;-62
2021/06/17 06:39:44;;;;;;;0.10;0.10;;;;;;;26.16;40.71;97368.22;5095348;28;20036;-63
2021/06/17 06:42:10;;;;;;;0.68;0.40;;;;;;;26.23;40.46;97365.50;5095243;28;20085;-60
2021/06/17 06:44:35;;;;;;;0.15;0.15;;;;;;;26.15;40.78;97363.78;5095199;28;20039;-63
2021/06/17 06:47:01;;;;;;;0.10;0.10;;;;;;;26.28;40.70;97375.69;5072420;28;20043;-64
2021/06/17 06:49:27;;;;;;;0.25;0.25;;;;;;;26.53;40.00;97367.66;5090007;28;20079;-72
2021/06/17 06:51:53;;;;;;;0.10;0.10;;;;;;;26.63;40.08;97369.00;5090580;28;20020;-64
2021/06/17 06:54:19;;;;;;;1.45;0.85;;;;;;;26.53;39.94;97364.03;5093031;28;20410;-62
2021/06/17 06:56:46;;;;;;;0.73;0.73;;;;;;;26.24;40.80;97355.09;5092165;28;20036;-62
2021/06/17 06:59:12;;;;;;;0.20;0.20;;;;;;;26.07;41.11;97362.00;5091788;28;20036;-62
2021/06/17 07:01:38;;;;;;;0.10;0.10;;;;;;;25.86;41.30;97349.13;5092343;28;20047;-63
2021/06/17 07:04:05;;;;;;;0.10;0.10;;;;;;;25.53;41.49;97356.13;5090170;28;20153;-63
2021/06/17 07:06:31;;;;;;;0.47;0.47;;;;;;;25.10;42.25;97355.19;5090597;28;20051;-62
2021/06/17 07:08:57;;;;;;;0.10;0.10;;;;;;;24.88;42.72;97361.47;5090026;28;20032;-63
2021/06/17 07:11:23;;;;;;;0.47;0.47;;;;;;;24.84;42.63;97361.41;5092106;28;20546;-63
2021/06/17 07:13:51;;;;;;;0.80;0.63;;;;;;;25.01;42.10;97352.56;5091763;28;20032;-62
2021/06/17 07:16:17;;;;;;;0.75;0.22;;;;;;;25.23;41.71;97364.28;5091438;28;20555;-63
2021/06/17 07:18:43;;;;;;;0.30;0.30;;;;;;;25.42;41.39;97346.66;5092038;28;22109;-61
2021/06/17 07:21:20;;;;;;;0.08;0.08;;;;;;;25.53;40.85;97350.50;5090681;28;20431;-63
2021/06/17 07:23:50;;;;;;;0.40;0.40;;;;;;;25.65;40.98;97359.97;5091245;28;20532;-65
2021/06/17 07:26:17;;;;;;;0.10;0.10;;;;;;;25.92;40.22;97351.66;5091210;28;20093;-68
2021/06/17 07:28:43;;;;;;;0.30;0.30;;;;;;;26.12;39.90;97360.88;5091661;28;20040;-63
2021/06/17 07:31:08;;;;;;;0.10;0.10;;;;;;;26.08;40.00;97360.84;5091266;28;20031;-63
2021/06/17 07:33:34;;;;;;;0.10;0.10;;;;;;;25.92;40.33;97368.53;5091597;28;20044;-63
2021/06/17 07:36:00;;;;;;;0.10;0.10;;;;;;;25.81;40.81;97377.56;5091215;28;20032;-64
2021/06/17 07:38:26;;;;;;;0.20;0.20;;;;;;;25.78;40.65;97372.69;5091769;28;20062;-64
2021/06/17 07:40:52;;;;;;;0.10;0.10;;;;;;;25.95;40.74;97387.47;5094043;28;20031;-63
2021/06/17 07:43:18;;;;;;;0.08;0.08;;;;;;;25.96;40.47;97375.84;5094747;28;20036;-63
2021/06/17 07:45:44;;;;;;;0.20;0.20;;;;;;;26.04;40.62;97388.06;5091830;28;20040;-63
2021/06/17 07:48:11;;;;;;;0.20;0.20;;;;;;;26.07;40.43;97381.69;5091002;28;20039;-63
2021/06/17 07:50:38;;;;;;;0.25;0.25;;;;;;;26.11;40.15;97376.97;5090068;28;20036;-62
2021/06/17 07:53:04;;;;;;;0.20;0.20;;;;;;;26.06;40.60;97382.91;5089430;28;20561;-64
2021/06/17 07:55:30;;;;;;;1.38;0.65;;;;;;;25.87;40.63;97384.50;5091391;28;20144;-64
2021/06/17 07:57:56;;;;;;;0.13;0.10;;;;;;;25.87;40.94;97384.50;5089434;28;20525;-63
2021/06/17 08:00:21;;;;;;;0.10;0.10;;;;;;;26.10;40.23;97391.41;5090695;28;20490;-64
2021/06/17 08:02:47;;;;;;;0.30;0.20;;;;;;;26.38;39.72;97388.28;5091125;28;20032;-62
2021/06/17 08:05:13;;;;;;;0.40;0.40;;;;;;;26.48;39.57;97384.84;5090795;28;20032;-62
2021/06/17 08:07:40;;;;;;;0.20;0.20;;;;;;;26.26;40.02;97385.66;5091333;28;20032;-62
2021/06/17 08:10:06;;;;;;;0.05;0.05;;;;;;;25.89;40.73;97387.75;5090618;28;20043;-65
2021/06/17 08:12:33;;;;;;;0.20;0.20;;;;;;;25.79;40.67;97391.16;5091093;28;20085;-64
2021/06/17 08:14:58;;;;;;;0.10;0.10;;;;;;;25.65;40.79;97396.50;5090456;28;20525;-64
2021/06/17 08:17:24;;;;;;;0.25;0.17;;;;;;;25.73;40.72;97387.03;5090249;28;20044;-66
2021/06/17 08:19:50;;;;;;;0.10;0.10;;;;;;;25.93;40.45;97401.91;5090868;28;20034;-65
2021/06/17 08:22:15;;;;;;;0.00;0.00;;;;;;;26.15;40.22;97397.53;5090067;28;20126;-66
2021/06/17 08:24:43;;;;;;;0.10;0.10;;;;;;;26.40;39.83;97394.38;5090357;28;20127;-65
2021/06/17 08:27:10;;;;;;;0.00;0.00;;;;;;;26.52;39.25;97393.38;5091841;28;20393;-67
2021/06/17 08:29:36;;;;;;;0.90;0.65;;;;;;;26.44;39.47;97395.22;5090350;28;20055;-67
2021/06/17 08:32:03;;;;;;;0.20;0.20;;;;;;;26.51;39.40;97384.09;5090260;28;20031;-66
2021/06/17 08:34:29;;;;;;;0.73;0.30;;;;;;;26.79;39.30;97388.63;5089319;28;20031;-64
2021/06/17 08:36:55;;;;;;;0.10;0.10;;;;;;;26.91;38.97;97379.16;5090333;28;20036;-61
2021/06/17 08:39:22;;;;;;;0.08;0.08;;;;;;;27.00;38.60;97385.34;5089596;28;20123;-65
2021/06/17 08:41:47;;;;;;;0.20;0.20;;;;;;;26.91;38.91;97379.97;5090233;28;20108;-64
2021/06/17 08:44:14;;;;;;;0.03;0.03;;;;;;;26.52;39.89;97402.63;5089748;28;20059;-66
2021/06/17 08:46:40;;;;;;;0.10;0.10;;;;;;;25.92;40.85;97386.19;5089622;28;20028;-62
2021/06/17 08:49:08;;;;;;;1.25;0.22;;;;;;;25.63;41.42;97382.84;5088979;28;20051;-63
2021/06/17 08:51:38;;;;;;;0.10;0.10;;;;;;;25.40;41.44;97390.34;5089751;28;20148;-61
2021/06/17 08:54:04;;;;;;;0.13;0.13;;;;;;;25.28;41.71;97389.28;5088441;28;20035;-62
2021/06/17 08:56:30;;;;;;;0.75;0.40;;;;;;;25.18;41.81;97395.47;5088626;28;20039;-62
2021/06/17 08:58:57;;;;;;;0.15;0.15;;;;;;;25.17;41.68;97391.81;5089535;28;20077;-61
2021/06/17 09:01:23;;;;;;;0.32;0.32;;;;;;;25.30;41.71;97394.53;5089267;28;20068;-63
2021/06/17 09:03:50;;;;;;;0.10;0.10;;;;;;;25.48;41.23;97395.75;5089095;28;20454;-62
2021/06/17 09:06:23;;;;;;;0.20;0.20;;;;;;;25.61;40.66;97392.81;5089428;28;20489;-63
2021/06/17 09:09:09;;;;;;;0.03;0.03;;;;;;;25.68;40.93;97393.75;5089901;28;20024;-63
2021/06/17 09:11:34;;;;;;;0.38;0.10;;;;;;;25.79;40.55;97402.41;5088845;28;20040;-64
2021/06/17 09:14:18;;;;;;;0.10;0.10;;;;;;;25.93;40.12;97395.44;5089422;28;20038;-62
2021/06/17 09:16:56;;;;;;;0.10;0.10;;;;;;;26.11;39.81;97385.41;5089789;28;20032;-63
2021/06/17 09:19:39;;;;;;;0.10;0.10;;;;;;;26.26;39.35;97394.09;5088339;28;20035;-63
2021/06/17 09:22:06;;;;;;;0.10;0.10;;;;;;;26.33;39.34;97402.69;5088872;28;20040;-62
2021/06/17 09:24:34;;;;;;;0.10;0.10;;;;;;;26.36;39.39;97401.94;5089494;28;20051;-63
2021/06/17 09:27:34;;;;;;;0.10;0.10;;;;;;;26.38;39.43;97408.81;5087455;28;20024;-62
2021/06/17 09:30:09;;;;;;;0.30;0.30;;;;;;;26.30;39.58;97397.81;5085765;28;20051;-63
2021/06/17 09:32:36;;;;;;;0.03;0.03;;;;;;;25.96;39.85;97398.34;5087751;28;20509;-63
2021/06/17 09:35:17;;;;;;;0.15;0.10;;;;;;;25.88;40.42;97396.56;5085607;28;20020;-63
2021/06/17 09:37:43;;;;;;;0.15;0.15;;;;;;;25.88;39.98;97388.13;5086274;28;20390;-64
2021/06/17 09:40:27;;;;;;;0.10;0.10;;;;;;;26.05;39.52;97384.88;5087702;28;20088;-62
2021/06/17 09:42:54;;;;;;;;;;;;;;;26.26;39.13;97386.47;5086011;28;20405;-63
2021/06/17 09:45:22;;;;;;;0.10;0.10;;;;;;;26.50;38.96;97376.88;5087755;28;19969;-63
2021/06/17 09:47:54;;;;;;;0.40;0.40;;;;;;;26.51;39.03;97378.47;5092297;28;20037;-67
2021/06/17 09:50:27;;;;;;;0.15;0.15;;;;;;;26.42;38.68;97368.66;5091584;28;20028;-64
2021/06/17 09:52:54;;;;;;;0.10;0.10;;;;;;;26.39;38.73;97373.03;5092012;28;20032;-63
2021/06/17 09:55:43;;;;;;;0.00;0.00;;;;;;;26.31;39.05;97380.56;5091206;28;20122;-64
2021/06/17 09:58:38;;;;;;;0.20;0.20;;;;;;;25.74;39.99;97369.00;5092355;28;20445;-63
2021/06/17 10:01:06;;;;;;;0.10;0.10;;;;;;;25.42;40.59;97371.94;5090676;28;20075;-62
2021/06/17 10:03:32;;;;;;;0.10;0.10;;;;;;;25.18;41.10;97365.38;5090569;28;20139;-64
2021/06/17 10:06:00;;;;;;;0.10;0.10;;;;;;;24.88;41.26;97367.06;5091618;28;20532;-63
2021/06/17 10:08:26;;;;;;;0.20;0.20;;;;;;;24.60;41.74;97373.63;5088686;28;20122;-63
2021/06/17 10:10:52;;;;;;;0.10;0.10;;;;;;;24.45;42.06;97373.22;5090351;28;20032;-63
2021/06/17 10:13:25;;;;;;;0.03;0.03;;;;;;;24.28;41.90;97373.63;5091585;28;20086;-63
2021/06/17 10:15:53;;;;;;;0.10;0.10;;;;;;;24.16;42.13;97365.25;5089992;28;20552;-62
2021/06/17 10:18:19;;;;;;;0.28;0.28;;;;;;;24.04;42.03;97371.75;5091625;28;20039;-63
2021/06/17 10:20:44;;;;;;;0.10;0.10;;;;;;;24.01;42.24;97369.69;5089836;28;20024;-63
2021/06/17 10:23:15;;;;;;;0.10;0.10;;;;;;;24.03;41.90;97368.16;5091462;28;20435;-62
2021/06/17 10:25:43;;;;;;;0.10;0.10;;;;;;;24.08;41.91;97362.25;5090707;28;20120;-64
2021/06/17 10:28:09;;;;;;;0.20;0.20;;;;;;;23.94;41.77;97361.91;5090365;28;20038;-63
2021/06/17 10:30:46;;;;;;;0.13;0.13;;;;;;;23.70;42.66;97349.59;5088543;28;20181;-63
2021/06/17 10:33:36;;;;;;;0.00;0.00;;;;;;;23.78;42.01;97356.22;5088409;28;20035;-63
2021/06/17 10:36:25;;;;;;;0.10;0.10;;;;;;;24.06;41.38;97344.19;5090038;28;20039;-63
2021/06/17 10:39:20;;;;;;;0.10;0.10;;;;;;;24.31;41.06;97350.44;5090121;28;20815;-61
2021/06/17 10:41:46;;;;;;;0.20;0.20;;;;;;;24.14;41.02;97351.59;5090156;28;20028;-64
2021/06/17 10:44:41;;;;;;;0.10;0.10;;;;;;;23.93;41.43;97357.47;5089964;28;20034;-61
2021/06/17 10:47:08;;;;;;;0.55;0.20;;;;;;;23.68;41.95;97357.53;5085684;28;20397;-62
2021/06/17 10:49:49;;;;;;;0.15;0.15;;;;;;;23.69;42.06;97345.19;5072080;28;20398;-62
2021/06/17 10:52:26;;;;;;;0.20;0.20;;;;;;;23.78;41.67;97350.63;5090437;28;20447;-60
2021/06/17 10:55:03;;;;;;;0.10;0.10;;;;;;;23.92;41.60;97353.03;5089877;28;20040;-62
2021/06/17 10:57:51;;;;;;;0.00;0.00;;;;;;;24.04;41.33;97361.38;5089704;28;20046;-61
2021/06/17 11:00:26;;;;;;;0.13;0.13;;;;;;;24.18;41.16;97352.50;5089812;28;20020;-63
2021/06/17 11:03:00;;;;;;;0.00;0.00;;;;;;;24.30;40.93;97355.22;5090340;28;20052;-62
2021/06/17 11:05:32;;;;;;;0.10;0.10;;;;;;;24.27;40.72;97352.34;5092735;28;20032;-61
2021/06/17 11:08:16;;;;;;;0.20;0.20;;;;;;;23.95;41.57;97363.50;5092911;28;20658;-59
2021/06/17 11:10:51;;;;;;;0.20;0.20;;;;;;;23.73;41.70;97360.09;5093358;28;20028;-63
2021/06/17 11:13:39;;;;;;;0.10;0.10;;;;;;;23.75;41.80;97366.16;5093402;28;20036;-61
2021/06/17 11:16:26;;;;;;;0.10;0.10;;;;;;;23.75;41.38;97368.97;5094300;28;20039;-63
2021/06/17 11:18:59;;;;;;;0.00;0.00;;;;;;;23.79;41.40;97383.06;5094552;28;20050;-64
2021/06/17 11:21:27;;;;;;;0.10;0.10;;;;;;;23.87;41.40;97386.94;5093325;28;20127;-62
2021/06/17 11:24:23;;;;;;;0.10;0.10;;;;;;;24.06;40.79;97381.44;5092793;28;20289;-63
2021/06/17 11:26:51;;;;;;;0.90;0.73;;;;;;;24.49;40.01;97378.94;5094271;28;20413;-62
2021/06/17 11:29:20;;;;;;;0.17;0.13;;;;;;;24.78;39.77;97380.50;5094313;28;20593;-62
2021/06/17 11:31:51;;;;;;;0.22;0.22;;;;;;;24.82;39.49;97389.00;5094193;28;20029;-63
2021/06/17 11:34:32;;;;;;;0.00;0.00;;;;;;;24.66;39.54;97386.19;5094530;28;20401;-62
2021/06/17 11:37:04;;;;;;;0.10;0.10;;;;;;;24.34;40.49;97390.97;5092849;28;20023;-63
2021/06/17 11:39:34;;;;;;;0.10;0.10;;;;;;;24.07;41.06;97379.44;5093808;28;20063;-63
2021/06/17 11:42:02;;;;;;;0.10;0.10;;;;;;;23.95;41.17;97383.13;5094614;28;20024;-64
2021/06/17 11:44:30;;;;;;;0.10;0.10;;;;;;;23.87;41.13;97389.72;5093847;28;20036;-65
2021/06/17 11:47:04;;;;;;;0.00;0.00;;;;;;;23.73;41.44;97382.53;5092707;28;20028;-63
2021/06/17 11:49:31;;;;;;;;;;;;;;;23.67;41.29;97383.13;5094388;28;20060;-63